createdAt,value
2023-05-19T00:00:02.713Z,66
2023-05-19T00:04:01.728Z,66
2023-05-19T00:08:02.206Z,66
2023-05-19T00:12:01.200Z,66
2023-05-19T00:16:01.227Z,66
2023-05-19T00:20:01.064Z,66
2023-05-19T00:24:00.921Z,67
2023-05-19T00:28:02.226Z,67
2023-05-19T00:32:01.143Z,67
2023-05-19T00:36:04.952Z,67
2023-05-19T00:40:01.013Z,67
2023-05-19T00:44:01.082Z,68
2023-05-19T00:48:01.019Z,68
2023-05-19T00:52:01.136Z,68
2023-05-19T00:56:02.478Z,68
2023-05-19T01:00:00.970Z,68
2023-05-19T01:04:03.262Z,68
2023-05-19T01:08:01.423Z,68
2023-05-19T01:12:01.110Z,68
2023-05-19T01:16:05.826Z,68
2023-05-19T01:20:06.216Z,68
2023-05-19T01:24:08.244Z,68
2023-05-19T01:28:10.703Z,68
2023-05-19T01:32:04.037Z,70
2023-05-19T01:36:02.394Z,70
2023-05-19T01:40:01.009Z,70
2023-05-19T01:44:01.385Z,70
2023-05-19T01:48:02.775Z,70
2023-05-19T01:52:01.080Z,70
2023-05-19T01:56:01.120Z,70
2023-05-19T02:00:07.440Z,70
2023-05-19T02:04:07.784Z,70
2023-05-19T02:08:05.282Z,70
2023-05-19T02:12:02.646Z,71
2023-05-19T02:16:03.631Z,71
2023-05-19T02:20:01.247Z,71
2023-05-19T02:24:00.899Z,72
2023-05-19T02:28:00.956Z,72
2023-05-19T02:32:01.516Z,72
2023-05-19T02:36:01.220Z,72
2023-05-19T02:40:00.901Z,72
2023-05-19T02:44:01.250Z,73
2023-05-19T02:48:01.030Z,73
2023-05-19T02:52:01.226Z,73
2023-05-19T02:56:01.028Z,74
2023-05-19T03:00:01.516Z,74
2023-05-19T03:04:01.068Z,75
2023-05-19T03:08:01.102Z,75
2023-05-19T03:12:03.074Z,76
2023-05-19T03:16:01.297Z,76
2023-05-19T03:20:01.293Z,76
2023-05-19T03:24:01.303Z,77
2023-05-19T03:28:00.845Z,77
2023-05-19T03:32:01.237Z,77
2023-05-19T03:36:01.116Z,77
2023-05-19T03:40:01.152Z,77
2023-05-19T03:44:01.053Z,78
2023-05-19T03:48:01.218Z,78
2023-05-19T03:52:02.366Z,80
2023-05-19T03:56:01.128Z,80
2023-05-19T04:00:00.909Z,80
2023-05-19T04:04:00.992Z,84
2023-05-19T04:08:01.078Z,84
2023-05-19T04:12:01.980Z,84
2023-05-19T04:16:01.138Z,86
2023-05-19T04:20:01.300Z,86
2023-05-19T04:24:00.981Z,88
2023-05-19T04:28:02.093Z,88
2023-05-19T04:32:01.020Z,88
2023-05-19T04:36:04.797Z,89
2023-05-19T04:40:00.874Z,89
2023-05-19T04:44:01.216Z,89
2023-05-19T04:48:01.041Z,89
2023-05-19T04:52:00.991Z,89
2023-05-19T04:56:01.204Z,89
2023-05-19T05:00:01.029Z,89
2023-05-19T05:04:01.577Z,89
2023-05-19T05:08:01.046Z,89
2023-05-19T05:12:01.382Z,89
2023-05-19T05:16:03.906Z,89
2023-05-19T05:20:01.301Z,89
2023-05-19T05:24:01.265Z,89
2023-05-19T05:28:04.108Z,89
2023-05-19T05:32:01.204Z,89
2023-05-19T05:36:00.867Z,88
2023-05-19T05:40:01.210Z,88
2023-05-19T05:44:00.969Z,88
2023-05-19T05:48:01.414Z,88
2023-05-19T05:52:07.014Z,88
2023-05-19T05:56:01.278Z,88
2023-05-19T06:00:01.150Z,88
2023-05-19T06:04:01.042Z,88
2023-05-19T06:08:00.932Z,88
2023-05-19T06:12:01.020Z,88
2023-05-19T06:16:02.424Z,87
2023-05-19T06:20:01.244Z,87
2023-05-19T06:24:00.836Z,86
2023-05-19T06:28:01.202Z,86
2023-05-19T06:32:00.968Z,86
2023-05-19T06:36:00.900Z,84
2023-05-19T06:40:00.918Z,84
2023-05-19T06:44:01.160Z,83
2023-05-19T06:48:01.093Z,83
2023-05-19T06:52:01.021Z,83
2023-05-19T06:56:00.917Z,82
2023-05-19T07:00:01.006Z,82
2023-05-19T07:04:01.479Z,82
2023-05-19T07:08:00.985Z,82
2023-05-19T07:12:00.906Z,82
2023-05-19T07:16:01.108Z,82
2023-05-19T07:20:01.020Z,82
2023-05-19T07:24:01.129Z,83
2023-05-19T07:28:01.053Z,83
2023-05-19T07:32:01.192Z,83
2023-05-19T07:36:00.896Z,83
2023-05-19T07:40:01.036Z,83
2023-05-19T07:44:01.335Z,79
2023-05-19T07:48:01.101Z,79
2023-05-19T07:52:00.926Z,79
2023-05-19T07:56:01.108Z,79
2023-05-19T08:00:00.910Z,79
2023-05-19T08:04:01.631Z,79
2023-05-19T08:08:00.974Z,79
2023-05-19T08:12:01.154Z,79
2023-05-19T08:16:01.089Z,78
2023-05-19T08:20:01.118Z,78
2023-05-19T08:24:01.015Z,78
2023-05-19T08:28:01.076Z,78
2023-05-19T08:32:01.785Z,78
2023-05-19T08:36:01.073Z,76
2023-05-19T08:40:03.854Z,76
2023-05-19T08:44:01.351Z,77
2023-05-19T08:48:02.259Z,77
2023-05-19T08:52:05.452Z,77
2023-05-19T08:56:03.802Z,77
2023-05-19T09:00:01.471Z,77
2023-05-19T09:04:01.523Z,77
2023-05-19T09:08:02.445Z,77
2023-05-19T09:12:00.969Z,77
2023-05-19T09:16:02.386Z,77
2023-05-19T09:20:00.963Z,77
2023-05-19T09:24:03.566Z,77
2023-05-19T09:28:00.973Z,77
2023-05-19T09:32:04.094Z,77
2023-05-19T09:36:01.482Z,77
2023-05-19T09:40:01.221Z,77
2023-05-19T09:44:00.925Z,78
2023-05-19T09:48:03.730Z,78
2023-05-19T09:52:02.520Z,78
2023-05-19T09:56:02.475Z,77
2023-05-19T10:00:07.602Z,77
2023-05-19T10:04:06.061Z,75
2023-05-19T10:08:02.236Z,75
2023-05-19T10:12:01.579Z,75
2023-05-19T10:16:01.920Z,73
2023-05-19T10:20:01.529Z,73
2023-05-19T10:24:00.956Z,72
2023-05-19T10:28:02.916Z,72
2023-05-19T10:32:09.664Z,71
2023-05-19T10:36:10.020Z,71
2023-05-19T10:40:06.536Z,71
2023-05-19T10:44:10.772Z,71
2023-05-19T10:48:01.047Z,71
2023-05-19T10:52:01.406Z,71
2023-05-19T10:56:03.250Z,69
2023-05-19T11:00:10.214Z,69
2023-05-19T11:04:05.507Z,66
2023-05-19T11:08:04.230Z,66
2023-05-19T11:12:02.473Z,66
2023-05-19T11:16:06.311Z,64
2023-05-19T11:20:00.936Z,64
2023-05-19T11:24:01.153Z,62
2023-05-19T11:28:01.668Z,62
2023-05-19T11:32:01.197Z,62
2023-05-19T11:36:01.908Z,61
2023-05-19T11:40:01.388Z,61
2023-05-19T11:44:00.938Z,60
2023-05-19T11:48:03.674Z,60
2023-05-19T11:52:01.356Z,60
2023-05-19T11:56:02.952Z,59
2023-05-19T12:00:01.618Z,59
2023-05-19T12:04:01.608Z,57
2023-05-19T12:08:01.578Z,57
2023-05-19T12:12:01.805Z,57
2023-05-19T12:16:02.689Z,55
2023-05-19T12:20:02.333Z,55
2023-05-19T12:24:01.164Z,56
2023-05-19T12:28:02.126Z,56
2023-05-19T12:32:02.183Z,56
2023-05-19T12:36:00.938Z,54
2023-05-19T12:40:01.361Z,54
2023-05-19T12:44:00.942Z,54
2023-05-19T12:48:02.223Z,54
2023-05-19T12:52:06.203Z,55
2023-05-19T12:56:00.937Z,55
2023-05-19T13:00:01.785Z,55
2023-05-19T13:04:04.680Z,55
2023-05-19T13:08:02.146Z,55
2023-05-19T13:12:01.168Z,55
2023-05-19T13:16:01.200Z,54
2023-05-19T13:20:01.016Z,54
2023-05-19T13:24:02.403Z,54
2023-05-19T13:28:03.952Z,54
2023-05-19T13:32:01.781Z,54
2023-05-19T13:36:00.979Z,55
2023-05-19T13:40:01.260Z,55
2023-05-19T13:44:00.920Z,53
2023-05-19T13:48:01.080Z,53
2023-05-19T13:52:00.977Z,53
2023-05-19T13:56:01.451Z,53
2023-05-19T14:00:04.406Z,53
2023-05-19T14:04:01.726Z,51
2023-05-19T14:08:02.653Z,51
2023-05-19T14:12:00.924Z,51
2023-05-19T14:16:01.184Z,53
2023-05-19T14:20:00.990Z,53
2023-05-19T14:24:01.051Z,51
2023-05-19T14:28:00.978Z,51
2023-05-19T14:32:02.173Z,51
2023-05-19T14:36:01.146Z,52
2023-05-19T14:40:01.032Z,52
2023-05-19T14:44:00.973Z,53
2023-05-19T14:48:00.915Z,53
2023-05-19T14:52:00.988Z,53
2023-05-19T14:56:00.918Z,53
2023-05-19T15:00:01.272Z,53
2023-05-19T15:04:01.047Z,53
2023-05-19T15:08:01.141Z,53
2023-05-19T15:12:00.885Z,53
2023-05-19T15:16:17.260Z,51
2023-05-19T15:20:01.107Z,51
2023-05-19T15:24:01.059Z,52
2023-05-19T15:28:00.997Z,52
2023-05-19T15:32:01.203Z,52
2023-05-19T15:36:00.954Z,52
2023-05-19T15:40:01.074Z,52
2023-05-19T15:44:01.635Z,53
2023-05-19T15:48:01.137Z,53
2023-05-19T15:52:00.969Z,53
2023-05-19T15:56:04.573Z,54
2023-05-19T16:00:00.918Z,54
2023-05-19T16:04:02.809Z,53
2023-05-19T16:08:01.043Z,53
2023-05-19T16:12:01.013Z,53
2023-05-19T16:16:01.106Z,53
2023-05-19T16:20:01.162Z,53
2023-05-19T16:24:00.902Z,52
2023-05-19T16:28:01.362Z,52
2023-05-19T16:32:01.095Z,52
2023-05-19T16:36:00.975Z,54
2023-05-19T16:40:00.936Z,54
2023-05-19T16:44:01.498Z,54
2023-05-19T16:48:01.054Z,54
2023-05-19T16:52:00.849Z,54
2023-05-19T16:56:01.097Z,54
2023-05-19T17:00:01.037Z,54
2023-05-19T17:04:01.016Z,54
2023-05-19T17:08:01.069Z,54
2023-05-19T17:12:00.903Z,54
2023-05-19T17:16:01.401Z,54
2023-05-19T17:20:01.164Z,54
2023-05-19T17:24:00.974Z,55
2023-05-19T17:28:00.947Z,55
2023-05-19T17:32:01.164Z,55
2023-05-19T17:36:01.375Z,55
2023-05-19T17:40:00.949Z,55
2023-05-19T17:44:02.782Z,55
2023-05-19T17:48:01.080Z,55
2023-05-19T17:52:01.062Z,55
2023-05-19T17:56:02.456Z,56
2023-05-19T18:00:02.649Z,56
2023-05-19T18:04:01.586Z,56
2023-05-19T18:08:05.995Z,56
2023-05-19T18:12:01.441Z,56
2023-05-19T18:16:01.005Z,56
2023-05-19T18:20:01.424Z,56
2023-05-19T18:24:03.307Z,57
2023-05-19T18:28:00.894Z,57
2023-05-19T18:32:01.368Z,57
2023-05-19T18:36:01.034Z,58
2023-05-19T18:40:01.072Z,58
2023-05-19T18:44:01.080Z,59
2023-05-19T18:48:01.273Z,59
2023-05-19T18:52:00.888Z,59
2023-05-19T18:56:01.970Z,60
2023-05-19T19:00:01.235Z,60
2023-05-19T19:04:01.276Z,60
2023-05-19T19:08:01.498Z,60
2023-05-19T19:12:01.063Z,60
2023-05-19T19:16:00.869Z,62
2023-05-19T19:20:01.386Z,62
2023-05-19T19:24:01.291Z,63
2023-05-19T19:28:01.298Z,63
2023-05-19T19:32:01.315Z,63
2023-05-19T19:36:01.037Z,64
2023-05-19T19:40:01.195Z,64
2023-05-19T19:44:01.085Z,65
2023-05-19T19:48:01.094Z,65
2023-05-19T19:52:01.041Z,65
2023-05-19T19:56:01.795Z,65
2023-05-19T20:00:07.294Z,65
2023-05-19T20:04:01.193Z,65
2023-05-19T20:08:01.234Z,65
2023-05-19T20:12:00.931Z,65
2023-05-19T20:16:01.327Z,66
2023-05-19T20:20:04.277Z,66
2023-05-19T20:24:01.116Z,66
2023-05-19T20:28:01.185Z,66
2023-05-19T20:32:01.131Z,66
2023-05-19T20:36:01.078Z,67
2023-05-19T20:40:01.002Z,67
2023-05-19T20:44:01.100Z,67
2023-05-19T20:48:01.866Z,67
2023-05-19T20:52:00.944Z,67
2023-05-19T20:56:01.151Z,68
2023-05-19T21:00:00.939Z,68
2023-05-19T21:04:05.751Z,68
2023-05-19T21:08:01.379Z,68
2023-05-19T21:12:01.315Z,68
2023-05-19T21:16:00.957Z,68
2023-05-19T21:20:01.201Z,68
2023-05-19T21:24:01.023Z,69
2023-05-19T21:28:00.920Z,69
2023-05-19T21:32:01.031Z,69
2023-05-19T21:36:01.233Z,69
2023-05-19T21:40:00.965Z,69
2023-05-19T21:44:01.201Z,69
2023-05-19T21:48:01.180Z,69
2023-05-19T21:52:01.114Z,69
2023-05-19T21:56:01.244Z,70
2023-05-19T22:00:00.899Z,70
2023-05-19T22:04:01.550Z,70
2023-05-19T22:08:01.038Z,70
2023-05-19T22:12:01.061Z,70
2023-05-19T22:16:03.537Z,70
2023-05-19T22:20:01.082Z,70
2023-05-19T22:24:01.136Z,71
2023-05-19T22:28:00.864Z,71
2023-05-19T22:32:00.994Z,71
2023-05-19T22:36:01.061Z,70
2023-05-19T22:40:00.920Z,70
2023-05-19T22:44:01.019Z,71
2023-05-19T22:48:01.250Z,71
2023-05-19T22:52:00.875Z,71
2023-05-19T22:56:01.122Z,72
2023-05-19T23:00:00.929Z,72
2023-05-19T23:04:01.023Z,72
2023-05-19T23:08:01.001Z,72
2023-05-19T23:12:01.027Z,72
2023-05-19T23:16:00.945Z,73
2023-05-19T23:20:01.266Z,73
2023-05-19T23:24:01.045Z,74
2023-05-19T23:28:00.909Z,74
2023-05-19T23:32:01.050Z,74
2023-05-19T23:36:04.556Z,74
2023-05-19T23:40:00.907Z,74
2023-05-19T23:44:01.171Z,74
2023-05-19T23:48:00.999Z,74
2023-05-19T23:52:01.016Z,74
2023-05-19T23:56:01.286Z,75
